sensor_id;sensor_type;location;lat;lon;timestamp;P1;durP1;ratioP1;P2;durP2;ratioP2
28028;SDS011;15345;59.364;18.016;2024-01-27T00:00:40;3.45;;;3.15;;
28028;SDS011;15345;59.364;18.016;2024-01-27T00:01:59;5.93;;;4.05;;
28028;SDS011;15345;59.364;18.016;2024-01-27T00:03:24;7.97;;;3.83;;
28028;SDS011;15345;59.364;18.016;2024-01-27T00:04:43;9.10;;;4.28;;
28028;SDS011;15345;59.364;18.016;2024-01-27T00:06:02;10.88;;;4.82;;
28028;SDS011;15345;59.364;18.016;2024-01-27T00:07:21;7.15;;;4.53;;
28028;SDS011;15345;59.364;18.016;2024-01-27T00:08:40;9.60;;;4.68;;
28028;SDS011;15345;59.364;18.016;2024-01-27T00:09:59;11.88;;;4.82;;
28028;SDS011;15345;59.364;18.016;2024-01-27T00:11:18;9.05;;;4.30;;
28028;SDS011;15345;59.364;18.016;2024-01-27T00:12:38;9.43;;;5.13;;
28028;SDS011;15345;59.364;18.016;2024-01-27T00:13:57;9.43;;;4.35;;
28028;SDS011;15345;59.364;18.016;2024-01-27T00:15:18;8.73;;;4.20;;
28028;SDS011;15345;59.364;18.016;2024-01-27T00:16:36;12.52;;;4.95;;
28028;SDS011;15345;59.364;18.016;2024-01-27T00:17:55;9.90;;;4.72;;
28028;SDS011;15345;59.364;18.016;2024-01-27T00:19:14;11.52;;;4.50;;
28028;SDS011;15345;59.364;18.016;2024-01-27T00:20:33;7.43;;;4.60;;
28028;SDS011;15345;59.364;18.016;2024-01-27T00:21:52;8.77;;;4.85;;
28028;SDS011;15345;59.364;18.016;2024-01-27T00:23:11;7.22;;;5.38;;
28028;SDS011;15345;59.364;18.016;2024-01-27T00:24:30;7.53;;;5.57;;
28028;SDS011;15345;59.364;18.016;2024-01-27T00:25:48;9.63;;;5.22;;
28028;SDS011;15345;59.364;18.016;2024-01-27T00:27:07;5.30;;;4.80;;
28028;SDS011;15345;59.364;18.016;2024-01-27T00:28:26;5.65;;;5.03;;
28028;SDS011;15345;59.364;18.016;2024-01-27T00:29:45;9.75;;;5.38;;
28028;SDS011;15345;59.364;18.016;2024-01-27T00:31:04;8.35;;;4.63;;
28028;SDS011;15345;59.364;18.016;2024-01-27T00:32:23;13.75;;;5.30;;
28028;SDS011;15345;59.364;18.016;2024-01-27T00:33:42;16.25;;;5.70;;
28028;SDS011;15345;59.364;18.016;2024-01-27T00:35:01;14.60;;;5.50;;
28028;SDS011;15345;59.364;18.016;2024-01-27T00:36:20;9.57;;;4.88;;
28028;SDS011;15345;59.364;18.016;2024-01-27T00:37:39;9.55;;;5.10;;
28028;SDS011;15345;59.364;18.016;2024-01-27T00:38:58;16.42;;;5.55;;
28028;SDS011;15345;59.364;18.016;2024-01-27T00:40:17;13.40;;;5.07;;
28028;SDS011;15345;59.364;18.016;2024-01-27T00:41:37;9.13;;;4.82;;
28028;SDS011;15345;59.364;18.016;2024-01-27T00:42:56;9.93;;;4.90;;
28028;SDS011;15345;59.364;18.016;2024-01-27T00:44:15;9.05;;;4.97;;
28028;SDS011;15345;59.364;18.016;2024-01-27T00:45:34;12.23;;;4.90;;
28028;SDS011;15345;59.364;18.016;2024-01-27T00:46:53;5.38;;;4.60;;
28028;SDS011;15345;59.364;18.016;2024-01-27T00:48:13;9.73;;;4.78;;
28028;SDS011;15345;59.364;18.016;2024-01-27T00:49:32;7.40;;;4.90;;
28028;SDS011;15345;59.364;18.016;2024-01-27T00:50:50;7.50;;;4.68;;
28028;SDS011;15345;59.364;18.016;2024-01-27T00:52:09;6.30;;;5.03;;
28028;SDS011;15345;59.364;18.016;2024-01-27T00:53:28;10.90;;;4.75;;
28028;SDS011;15345;59.364;18.016;2024-01-27T00:54:48;8.05;;;4.93;;
28028;SDS011;15345;59.364;18.016;2024-01-27T00:56:07;12.88;;;5.20;;
28028;SDS011;15345;59.364;18.016;2024-01-27T00:57:26;10.20;;;4.90;;
28028;SDS011;15345;59.364;18.016;2024-01-27T00:58:45;8.88;;;5.15;;
28028;SDS011;15345;59.364;18.016;2024-01-27T01:00:06;13.02;;;4.95;;
28028;SDS011;15345;59.364;18.016;2024-01-27T01:01:25;5.93;;;5.18;;
28028;SDS011;15345;59.364;18.016;2024-01-27T01:02:47;8.20;;;5.30;;
28028;SDS011;15345;59.364;18.016;2024-01-27T01:04:06;12.68;;;4.90;;
28028;SDS011;15345;59.364;18.016;2024-01-27T01:05:26;8.52;;;4.88;;
28028;SDS011;15345;59.364;18.016;2024-01-27T01:06:45;13.40;;;5.72;;
28028;SDS011;15345;59.364;18.016;2024-01-27T01:08:07;14.75;;;5.63;;
28028;SDS011;15345;59.364;18.016;2024-01-27T01:09:26;19.60;;;5.80;;
28028;SDS011;15345;59.364;18.016;2024-01-27T01:10:45;9.80;;;4.95;;
28028;SDS011;15345;59.364;18.016;2024-01-27T01:12:04;17.75;;;6.85;;
28028;SDS011;15345;59.364;18.016;2024-01-27T01:13:23;14.95;;;6.05;;
28028;SDS011;15345;59.364;18.016;2024-01-27T01:14:43;10.60;;;5.63;;
28028;SDS011;15345;59.364;18.016;2024-01-27T01:16:02;9.93;;;5.95;;
28028;SDS011;15345;59.364;18.016;2024-01-27T01:17:22;9.10;;;5.88;;
28028;SDS011;15345;59.364;18.016;2024-01-27T01:18:41;14.50;;;5.82;;
28028;SDS011;15345;59.364;18.016;2024-01-27T01:20:00;9.95;;;5.80;;
28028;SDS011;15345;59.364;18.016;2024-01-27T01:21:22;10.70;;;5.72;;
28028;SDS011;15345;59.364;18.016;2024-01-27T01:22:44;15.15;;;6.63;;
28028;SDS011;15345;59.364;18.016;2024-01-27T01:24:03;12.05;;;6.05;;
28028;SDS011;15345;59.364;18.016;2024-01-27T01:25:22;10.27;;;5.80;;
28028;SDS011;15345;59.364;18.016;2024-01-27T01:26:42;12.13;;;5.75;;
28028;SDS011;15345;59.364;18.016;2024-01-27T01:28:01;8.25;;;5.35;;
28028;SDS011;15345;59.364;18.016;2024-01-27T01:29:20;12.15;;;5.82;;
28028;SDS011;15345;59.364;18.016;2024-01-27T01:30:40;8.68;;;5.72;;
28028;SDS011;15345;59.364;18.016;2024-01-27T01:31:59;7.32;;;5.80;;
28028;SDS011;15345;59.364;18.016;2024-01-27T01:33:21;12.23;;;5.35;;
28028;SDS011;15345;59.364;18.016;2024-01-27T01:34:40;10.98;;;6.28;;
28028;SDS011;15345;59.364;18.016;2024-01-27T01:36:03;10.75;;;5.80;;
28028;SDS011;15345;59.364;18.016;2024-01-27T01:37:22;9.18;;;6.53;;
28028;SDS011;15345;59.364;18.016;2024-01-27T01:38:42;9.93;;;5.95;;
28028;SDS011;15345;59.364;18.016;2024-01-27T01:40:01;10.70;;;6.45;;
28028;SDS011;15345;59.364;18.016;2024-01-27T01:41:22;9.55;;;6.55;;
28028;SDS011;15345;59.364;18.016;2024-01-27T01:42:41;13.70;;;6.88;;
28028;SDS011;15345;59.364;18.016;2024-01-27T01:44:03;10.13;;;6.70;;
28028;SDS011;15345;59.364;18.016;2024-01-27T01:45:22;12.30;;;6.85;;
28028;SDS011;15345;59.364;18.016;2024-01-27T01:46:44;16.77;;;6.90;;
28028;SDS011;15345;59.364;18.016;2024-01-27T01:48:07;14.88;;;7.47;;
28028;SDS011;15345;59.364;18.016;2024-01-27T01:49:26;14.10;;;7.10;;
28028;SDS011;15345;59.364;18.016;2024-01-27T01:50:46;16.50;;;7.38;;
28028;SDS011;15345;59.364;18.016;2024-01-27T01:52:05;11.25;;;7.05;;
28028;SDS011;15345;59.364;18.016;2024-01-27T01:53:25;14.10;;;7.32;;
28028;SDS011;15345;59.364;18.016;2024-01-27T01:54:44;9.85;;;6.90;;
28028;SDS011;15345;59.364;18.016;2024-01-27T01:56:03;12.10;;;6.85;;
28028;SDS011;15345;59.364;18.016;2024-01-27T01:57:22;12.75;;;7.35;;
28028;SDS011;15345;59.364;18.016;2024-01-27T01:58:41;12.38;;;7.07;;
28028;SDS011;15345;59.364;18.016;2024-01-27T02:00:01;15.20;;;8.15;;
28028;SDS011;15345;59.364;18.016;2024-01-27T02:01:20;12.32;;;7.35;;
28028;SDS011;15345;59.364;18.016;2024-01-27T02:02:40;16.98;;;7.25;;
28028;SDS011;15345;59.364;18.016;2024-01-27T02:03:59;14.43;;;7.47;;
28028;SDS011;15345;59.364;18.016;2024-01-27T02:05:18;11.73;;;7.55;;
28028;SDS011;15345;59.364;18.016;2024-01-27T02:06:37;14.63;;;8.63;;
28028;SDS011;15345;59.364;18.016;2024-01-27T02:07:56;16.05;;;8.07;;
28028;SDS011;15345;59.364;18.016;2024-01-27T02:09:18;16.85;;;7.95;;
28028;SDS011;15345;59.364;18.016;2024-01-27T02:10:37;11.98;;;8.18;;
28028;SDS011;15345;59.364;18.016;2024-01-27T02:11:56;13.98;;;7.75;;
28028;SDS011;15345;59.364;18.016;2024-01-27T02:13:18;15.05;;;7.88;;
28028;SDS011;15345;59.364;18.016;2024-01-27T02:15:57;14.70;;;7.82;;
28028;SDS011;15345;59.364;18.016;2024-01-27T02:17:16;12.82;;;7.50;;
28028;SDS011;15345;59.364;18.016;2024-01-27T02:18:35;14.90;;;7.93;;
28028;SDS011;15345;59.364;18.016;2024-01-27T02:19:53;14.88;;;7.57;;
28028;SDS011;15345;59.364;18.016;2024-01-27T02:21:12;12.35;;;7.07;;
28028;SDS011;15345;59.364;18.016;2024-01-27T02:22:32;13.35;;;8.10;;
28028;SDS011;15345;59.364;18.016;2024-01-27T02:23:51;16.35;;;8.23;;
28028;SDS011;15345;59.364;18.016;2024-01-27T02:25:10;15.52;;;7.63;;
28028;SDS011;15345;59.364;18.016;2024-01-27T02:26:29;14.80;;;7.85;;
28028;SDS011;15345;59.364;18.016;2024-01-27T02:27:48;16.67;;;8.30;;
28028;SDS011;15345;59.364;18.016;2024-01-27T02:29:07;15.30;;;7.95;;
28028;SDS011;15345;59.364;18.016;2024-01-27T02:30:29;14.07;;;6.97;;
28028;SDS011;15345;59.364;18.016;2024-01-27T02:31:49;13.77;;;7.00;;
28028;SDS011;15345;59.364;18.016;2024-01-27T02:33:08;10.77;;;5.95;;
28028;SDS011;15345;59.364;18.016;2024-01-27T02:34:27;6.68;;;4.80;;
28028;SDS011;15345;59.364;18.016;2024-01-27T02:35:46;10.88;;;5.65;;
28028;SDS011;15345;59.364;18.016;2024-01-27T02:37:07;7.30;;;5.13;;
28028;SDS011;15345;59.364;18.016;2024-01-27T02:38:26;6.65;;;5.25;;
28028;SDS011;15345;59.364;18.016;2024-01-27T02:39:45;5.28;;;4.07;;
28028;SDS011;15345;59.364;18.016;2024-01-27T02:41:04;6.03;;;4.82;;
28028;SDS011;15345;59.364;18.016;2024-01-27T02:42:23;5.95;;;3.97;;
28028;SDS011;15345;59.364;18.016;2024-01-27T02:43:43;6.13;;;4.40;;
28028;SDS011;15345;59.364;18.016;2024-01-27T02:45:02;5.10;;;4.22;;
28028;SDS011;15345;59.364;18.016;2024-01-27T02:46:21;5.20;;;4.57;;
28028;SDS011;15345;59.364;18.016;2024-01-27T02:47:40;4.32;;;3.45;;
28028;SDS011;15345;59.364;18.016;2024-01-27T02:48:59;4.68;;;3.17;;
28028;SDS011;15345;59.364;18.016;2024-01-27T02:50:19;5.72;;;2.95;;
28028;SDS011;15345;59.364;18.016;2024-01-27T02:51:38;3.45;;;3.15;;
28028;SDS011;15345;59.364;18.016;2024-01-27T02:52:57;3.13;;;2.83;;
28028;SDS011;15345;59.364;18.016;2024-01-27T02:54:16;2.80;;;2.45;;
28028;SDS011;15345;59.364;18.016;2024-01-27T02:55:35;3.08;;;2.75;;
28028;SDS011;15345;59.364;18.016;2024-01-27T02:56:54;2.78;;;2.40;;
28028;SDS011;15345;59.364;18.016;2024-01-27T02:58:13;2.70;;;2.50;;
28028;SDS011;15345;59.364;18.016;2024-01-27T02:59:32;2.40;;;2.20;;
28028;SDS011;15345;59.364;18.016;2024-01-27T03:00:51;1.98;;;1.88;;
28028;SDS011;15345;59.364;18.016;2024-01-27T03:02:10;1.90;;;1.80;;
28028;SDS011;15345;59.364;18.016;2024-01-27T03:03:29;2.67;;;1.75;;
28028;SDS011;15345;59.364;18.016;2024-01-27T03:04:48;3.50;;;2.15;;
28028;SDS011;15345;59.364;18.016;2024-01-27T03:06:07;2.40;;;2.20;;
28028;SDS011;15345;59.364;18.016;2024-01-27T03:07:27;2.20;;;2.00;;
28028;SDS011;15345;59.364;18.016;2024-01-27T03:08:46;1.98;;;1.80;;
28028;SDS011;15345;59.364;18.016;2024-01-27T03:10:05;2.30;;;1.95;;
28028;SDS011;15345;59.364;18.016;2024-01-27T03:11:24;1.80;;;1.65;;
28028;SDS011;15345;59.364;18.016;2024-01-27T03:12:43;1.90;;;1.63;;
28028;SDS011;15345;59.364;18.016;2024-01-27T03:14:02;2.05;;;1.90;;
28028;SDS011;15345;59.364;18.016;2024-01-27T03:15:21;1.60;;;1.50;;
28028;SDS011;15345;59.364;18.016;2024-01-27T03:16:40;1.85;;;1.48;;
28028;SDS011;15345;59.364;18.016;2024-01-27T03:17:59;2.15;;;2.00;;
28028;SDS011;15345;59.364;18.016;2024-01-27T03:19:19;1.95;;;1.75;;
28028;SDS011;15345;59.364;18.016;2024-01-27T03:20:38;1.90;;;1.70;;
28028;SDS011;15345;59.364;18.016;2024-01-27T03:21:57;1.60;;;1.50;;
28028;SDS011;15345;59.364;18.016;2024-01-27T03:23:16;1.90;;;1.80;;
28028;SDS011;15345;59.364;18.016;2024-01-27T03:24:35;1.60;;;1.50;;
28028;SDS011;15345;59.364;18.016;2024-01-27T03:25:53;2.88;;;1.80;;
28028;SDS011;15345;59.364;18.016;2024-01-27T03:27:13;2.13;;;1.55;;
28028;SDS011;15345;59.364;18.016;2024-01-27T03:28:32;1.40;;;1.30;;
28028;SDS011;15345;59.364;18.016;2024-01-27T03:29:51;2.53;;;1.50;;
28028;SDS011;15345;59.364;18.016;2024-01-27T03:31:10;1.60;;;1.50;;
28028;SDS011;15345;59.364;18.016;2024-01-27T03:32:29;1.75;;;1.65;;
28028;SDS011;15345;59.364;18.016;2024-01-27T03:33:51;1.63;;;1.52;;
28028;SDS011;15345;59.364;18.016;2024-01-27T03:35:10;1.45;;;1.35;;
28028;SDS011;15345;59.364;18.016;2024-01-27T03:36:29;1.50;;;1.40;;
28028;SDS011;15345;59.364;18.016;2024-01-27T03:37:48;1.50;;;1.40;;
28028;SDS011;15345;59.364;18.016;2024-01-27T03:39:10;1.25;;;1.08;;
28028;SDS011;15345;59.364;18.016;2024-01-27T03:40:29;0.93;;;0.93;;
28028;SDS011;15345;59.364;18.016;2024-01-27T03:41:48;1.80;;;0.80;;
28028;SDS011;15345;59.364;18.016;2024-01-27T03:43:07;0.70;;;0.70;;
28028;SDS011;15345;59.364;18.016;2024-01-27T03:44:26;0.85;;;0.85;;
28028;SDS011;15345;59.364;18.016;2024-01-27T03:45:45;0.73;;;0.73;;
28028;SDS011;15345;59.364;18.016;2024-01-27T03:47:04;0.90;;;0.90;;
28028;SDS011;15345;59.364;18.016;2024-01-27T03:48:23;1.00;;;1.00;;
28028;SDS011;15345;59.364;18.016;2024-01-27T03:49:42;0.90;;;0.90;;
28028;SDS011;15345;59.364;18.016;2024-01-27T03:51:01;0.90;;;0.80;;
28028;SDS011;15345;59.364;18.016;2024-01-27T03:52:20;0.90;;;0.90;;
28028;SDS011;15345;59.364;18.016;2024-01-27T03:53:39;0.90;;;0.90;;
28028;SDS011;15345;59.364;18.016;2024-01-27T03:54:58;1.05;;;1.05;;
28028;SDS011;15345;59.364;18.016;2024-01-27T03:56:17;1.35;;;1.10;;
28028;SDS011;15345;59.364;18.016;2024-01-27T03:57:37;1.00;;;1.00;;
28028;SDS011;15345;59.364;18.016;2024-01-27T03:58:56;1.30;;;1.20;;
28028;SDS011;15345;59.364;18.016;2024-01-27T04:00:15;1.20;;;1.20;;
28028;SDS011;15345;59.364;18.016;2024-01-27T04:01:34;1.25;;;1.25;;
28028;SDS011;15345;59.364;18.016;2024-01-27T04:02:53;1.35;;;1.20;;
28028;SDS011;15345;59.364;18.016;2024-01-27T04:04:13;1.02;;;1.02;;
28028;SDS011;15345;59.364;18.016;2024-01-27T04:05:32;1.48;;;1.38;;
28028;SDS011;15345;59.364;18.016;2024-01-27T04:06:51;1.08;;;1.08;;
28028;SDS011;15345;59.364;18.016;2024-01-27T04:08:10;1.52;;;1.42;;
28028;SDS011;15345;59.364;18.016;2024-01-27T04:09:29;1.35;;;1.25;;
28028;SDS011;15345;59.364;18.016;2024-01-27T04:10:47;1.50;;;1.40;;
28028;SDS011;15345;59.364;18.016;2024-01-27T04:12:06;2.15;;;1.27;;
28028;SDS011;15345;59.364;18.016;2024-01-27T04:13:25;1.27;;;1.27;;
28028;SDS011;15345;59.364;18.016;2024-01-27T04:14:44;1.63;;;1.10;;
28028;SDS011;15345;59.364;18.016;2024-01-27T04:16:03;1.52;;;1.20;;
28028;SDS011;15345;59.364;18.016;2024-01-27T04:17:22;1.10;;;1.10;;
28028;SDS011;15345;59.364;18.016;2024-01-27T04:18:41;0.85;;;0.70;;
28028;SDS011;15345;59.364;18.016;2024-01-27T04:20:00;0.90;;;0.90;;
28028;SDS011;15345;59.364;18.016;2024-01-27T04:21:21;1.02;;;1.02;;
28028;SDS011;15345;59.364;18.016;2024-01-27T04:22:40;1.63;;;1.02;;
28028;SDS011;15345;59.364;18.016;2024-01-27T04:23:59;1.20;;;1.10;;
28028;SDS011;15345;59.364;18.016;2024-01-27T04:25:18;1.20;;;1.10;;
28028;SDS011;15345;59.364;18.016;2024-01-27T04:26:37;1.10;;;1.02;;
28028;SDS011;15345;59.364;18.016;2024-01-27T04:27:56;1.08;;;1.02;;
28028;SDS011;15345;59.364;18.016;2024-01-27T04:29:15;1.10;;;1.10;;
28028;SDS011;15345;59.364;18.016;2024-01-27T04:30:34;1.33;;;1.08;;
28028;SDS011;15345;59.364;18.016;2024-01-27T04:31:53;1.00;;;1.00;;
28028;SDS011;15345;59.364;18.016;2024-01-27T04:33:12;1.48;;;1.40;;
28028;SDS011;15345;59.364;18.016;2024-01-27T04:34:31;1.50;;;1.05;;
28028;SDS011;15345;59.364;18.016;2024-01-27T04:35:51;1.52;;;1.40;;
28028;SDS011;15345;59.364;18.016;2024-01-27T04:37:11;1.40;;;1.30;;
28028;SDS011;15345;59.364;18.016;2024-01-27T04:38:30;1.50;;;1.40;;
28028;SDS011;15345;59.364;18.016;2024-01-27T04:39:49;1.35;;;1.30;;
28028;SDS011;15345;59.364;18.016;2024-01-27T04:41:07;1.33;;;1.23;;
28028;SDS011;15345;59.364;18.016;2024-01-27T04:42:26;1.20;;;1.10;;
28028;SDS011;15345;59.364;18.016;2024-01-27T04:43:46;1.40;;;1.30;;
28028;SDS011;15345;59.364;18.016;2024-01-27T04:45:05;1.83;;;1.27;;
28028;SDS011;15345;59.364;18.016;2024-01-27T04:46:25;1.30;;;1.30;;
28028;SDS011;15345;59.364;18.016;2024-01-27T04:47:44;1.40;;;1.30;;
28028;SDS011;15345;59.364;18.016;2024-01-27T04:49:03;1.40;;;1.30;;
28028;SDS011;15345;59.364;18.016;2024-01-27T04:50:21;1.30;;;1.20;;
28028;SDS011;15345;59.364;18.016;2024-01-27T04:51:41;1.30;;;1.20;;
28028;SDS011;15345;59.364;18.016;2024-01-27T04:52:59;0.90;;;0.90;;
28028;SDS011;15345;59.364;18.016;2024-01-27T04:54:19;1.42;;;1.23;;
28028;SDS011;15345;59.364;18.016;2024-01-27T04:55:38;1.25;;;1.02;;
28028;SDS011;15345;59.364;18.016;2024-01-27T04:56:57;1.10;;;1.10;;
28028;SDS011;15345;59.364;18.016;2024-01-27T04:58:16;1.48;;;1.38;;
28028;SDS011;15345;59.364;18.016;2024-01-27T04:59:35;1.20;;;1.10;;
28028;SDS011;15345;59.364;18.016;2024-01-27T05:00:54;1.42;;;1.27;;
28028;SDS011;15345;59.364;18.016;2024-01-27T05:02:13;1.08;;;1.08;;
28028;SDS011;15345;59.364;18.016;2024-01-27T05:03:32;1.10;;;1.02;;
28028;SDS011;15345;59.364;18.016;2024-01-27T05:04:51;1.25;;;1.05;;
28028;SDS011;15345;59.364;18.016;2024-01-27T05:06:11;1.20;;;1.10;;
28028;SDS011;15345;59.364;18.016;2024-01-27T05:07:30;1.90;;;1.55;;
28028;SDS011;15345;59.364;18.016;2024-01-27T05:08:49;0.90;;;0.90;;
28028;SDS011;15345;59.364;18.016;2024-01-27T05:10:10;1.40;;;1.30;;
28028;SDS011;15345;59.364;18.016;2024-01-27T05:11:30;2.40;;;1.00;;
28028;SDS011;15345;59.364;18.016;2024-01-27T05:12:50;0.98;;;0.98;;
28028;SDS011;15345;59.364;18.016;2024-01-27T05:14:09;1.20;;;1.10;;
28028;SDS011;15345;59.364;18.016;2024-01-27T05:15:28;0.73;;;0.73;;
28028;SDS011;15345;59.364;18.016;2024-01-27T05:16:47;0.80;;;0.80;;
28028;SDS011;15345;59.364;18.016;2024-01-27T05:18:06;0.70;;;0.70;;
28028;SDS011;15345;59.364;18.016;2024-01-27T05:19:25;1.08;;;0.90;;
28028;SDS011;15345;59.364;18.016;2024-01-27T05:20:44;1.20;;;1.10;;
28028;SDS011;15345;59.364;18.016;2024-01-27T05:22:03;0.90;;;0.90;;
28028;SDS011;15345;59.364;18.016;2024-01-27T05:23:22;0.95;;;0.93;;
28028;SDS011;15345;59.364;18.016;2024-01-27T05:24:42;1.17;;;0.77;;
28028;SDS011;15345;59.364;18.016;2024-01-27T05:26:01;1.10;;;1.00;;
28028;SDS011;15345;59.364;18.016;2024-01-27T05:27:20;0.82;;;0.77;;
28028;SDS011;15345;59.364;18.016;2024-01-27T05:28:39;0.77;;;0.77;;
28028;SDS011;15345;59.364;18.016;2024-01-27T05:29:58;1.00;;;0.90;;
28028;SDS011;15345;59.364;18.016;2024-01-27T05:31:17;0.90;;;0.90;;
28028;SDS011;15345;59.364;18.016;2024-01-27T05:32:36;0.93;;;0.90;;
28028;SDS011;15345;59.364;18.016;2024-01-27T05:33:55;0.70;;;0.70;;
28028;SDS011;15345;59.364;18.016;2024-01-27T05:35:16;2.00;;;0.98;;
28028;SDS011;15345;59.364;18.016;2024-01-27T05:36:34;0.90;;;0.70;;
28028;SDS011;15345;59.364;18.016;2024-01-27T05:37:53;1.05;;;0.90;;
28028;SDS011;15345;59.364;18.016;2024-01-27T05:39:13;0.80;;;0.80;;
28028;SDS011;15345;59.364;18.016;2024-01-27T05:40:32;0.68;;;0.68;;
28028;SDS011;15345;59.364;18.016;2024-01-27T05:41:51;3.25;;;0.88;;
28028;SDS011;15345;59.364;18.016;2024-01-27T05:43:10;0.60;;;0.60;;
28028;SDS011;15345;59.364;18.016;2024-01-27T05:44:29;0.80;;;0.80;;
28028;SDS011;15345;59.364;18.016;2024-01-27T05:45:48;0.73;;;0.73;;
28028;SDS011;15345;59.364;18.016;2024-01-27T05:47:07;0.80;;;0.80;;
28028;SDS011;15345;59.364;18.016;2024-01-27T05:48:30;0.90;;;0.90;;
28028;SDS011;15345;59.364;18.016;2024-01-27T05:49:49;0.85;;;0.85;;
28028;SDS011;15345;59.364;18.016;2024-01-27T05:51:09;1.05;;;0.90;;
28028;SDS011;15345;59.364;18.016;2024-01-27T05:52:28;2.10;;;0.90;;
28028;SDS011;15345;59.364;18.016;2024-01-27T05:53:47;1.20;;;1.10;;
28028;SDS011;15345;59.364;18.016;2024-01-27T05:55:06;0.90;;;0.90;;
28028;SDS011;15345;59.364;18.016;2024-01-27T05:56:25;0.80;;;0.80;;
28028;SDS011;15345;59.364;18.016;2024-01-27T05:57:44;0.80;;;0.80;;
28028;SDS011;15345;59.364;18.016;2024-01-27T05:59:03;1.08;;;1.05;;
28028;SDS011;15345;59.364;18.016;2024-01-27T06:00:22;0.90;;;0.90;;
28028;SDS011;15345;59.364;18.016;2024-01-27T06:01:41;1.00;;;1.00;;
28028;SDS011;15345;59.364;18.016;2024-01-27T06:03:02;0.90;;;0.90;;
28028;SDS011;15345;59.364;18.016;2024-01-27T06:04:21;0.85;;;0.73;;
28028;SDS011;15345;59.364;18.016;2024-01-27T06:05:41;0.80;;;0.80;;
28028;SDS011;15345;59.364;18.016;2024-01-27T06:07:00;1.15;;;0.93;;
28028;SDS011;15345;59.364;18.016;2024-01-27T06:08:19;0.88;;;0.80;;
28028;SDS011;15345;59.364;18.016;2024-01-27T06:09:39;0.80;;;0.80;;
28028;SDS011;15345;59.364;18.016;2024-01-27T06:10:58;0.80;;;0.80;;
28028;SDS011;15345;59.364;18.016;2024-01-27T06:12:17;2.22;;;0.85;;
28028;SDS011;15345;59.364;18.016;2024-01-27T06:13:36;0.80;;;0.80;;
28028;SDS011;15345;59.364;18.016;2024-01-27T06:14:59;1.38;;;0.95;;
28028;SDS011;15345;59.364;18.016;2024-01-27T06:16:18;0.90;;;0.90;;
28028;SDS011;15345;59.364;18.016;2024-01-27T06:17:37;0.88;;;0.88;;
28028;SDS011;15345;59.364;18.016;2024-01-27T06:18:56;1.58;;;1.15;;
28028;SDS011;15345;59.364;18.016;2024-01-27T06:20:15;2.10;;;0.90;;
28028;SDS011;15345;59.364;18.016;2024-01-27T06:21:37;0.80;;;0.80;;
28028;SDS011;15345;59.364;18.016;2024-01-27T06:22:59;0.98;;;0.93;;
28028;SDS011;15345;59.364;18.016;2024-01-27T06:24:19;0.90;;;0.90;;
28028;SDS011;15345;59.364;18.016;2024-01-27T06:25:38;1.30;;;0.80;;
28028;SDS011;15345;59.364;18.016;2024-01-27T06:26:56;1.65;;;0.80;;
28028;SDS011;15345;59.364;18.016;2024-01-27T06:28:15;2.60;;;0.90;;
28028;SDS011;15345;59.364;18.016;2024-01-27T06:29:34;1.05;;;0.75;;
28028;SDS011;15345;59.364;18.016;2024-01-27T06:30:53;0.95;;;0.95;;
28028;SDS011;15345;59.364;18.016;2024-01-27T06:32:12;2.17;;;0.90;;
28028;SDS011;15345;59.364;18.016;2024-01-27T06:33:32;1.48;;;0.90;;
28028;SDS011;15345;59.364;18.016;2024-01-27T06:34:50;2.63;;;1.20;;
28028;SDS011;15345;59.364;18.016;2024-01-27T06:36:10;1.45;;;0.80;;
28028;SDS011;15345;59.364;18.016;2024-01-27T06:37:29;1.40;;;0.90;;
28028;SDS011;15345;59.364;18.016;2024-01-27T06:38:48;2.13;;;0.90;;
28028;SDS011;15345;59.364;18.016;2024-01-27T06:40:11;1.17;;;1.00;;
28028;SDS011;15345;59.364;18.016;2024-01-27T06:41:30;1.55;;;0.85;;
28028;SDS011;15345;59.364;18.016;2024-01-27T06:42:49;1.35;;;0.90;;
28028;SDS011;15345;59.364;18.016;2024-01-27T06:44:08;1.63;;;0.70;;
28028;SDS011;15345;59.364;18.016;2024-01-27T06:45:27;0.82;;;0.82;;
28028;SDS011;15345;59.364;18.016;2024-01-27T06:46:46;1.10;;;0.90;;
28028;SDS011;15345;59.364;18.016;2024-01-27T06:48:08;2.10;;;1.15;;
28028;SDS011;15345;59.364;18.016;2024-01-27T06:49:27;1.88;;;0.90;;
28028;SDS011;15345;59.364;18.016;2024-01-27T06:50:46;2.30;;;1.00;;
28028;SDS011;15345;59.364;18.016;2024-01-27T06:52:05;1.30;;;0.90;;
28028;SDS011;15345;59.364;18.016;2024-01-27T06:53:26;1.80;;;0.95;;
28028;SDS011;15345;59.364;18.016;2024-01-27T06:54:45;1.05;;;0.65;;
28028;SDS011;15345;59.364;18.016;2024-01-27T06:56:04;1.58;;;0.95;;
28028;SDS011;15345;59.364;18.016;2024-01-27T06:57:24;0.88;;;0.80;;
28028;SDS011;15345;59.364;18.016;2024-01-27T06:58:43;1.05;;;0.93;;
28028;SDS011;15345;59.364;18.016;2024-01-27T07:00:02;1.02;;;0.73;;
28028;SDS011;15345;59.364;18.016;2024-01-27T07:01:21;1.02;;;1.00;;
28028;SDS011;15345;59.364;18.016;2024-01-27T07:02:42;3.67;;;0.82;;
28028;SDS011;15345;59.364;18.016;2024-01-27T07:04:01;2.05;;;1.00;;
28028;SDS011;15345;59.364;18.016;2024-01-27T07:05:20;2.95;;;1.05;;
28028;SDS011;15345;59.364;18.016;2024-01-27T07:06:40;2.30;;;0.90;;
28028;SDS011;15345;59.364;18.016;2024-01-27T07:07:59;1.45;;;1.10;;
28028;SDS011;15345;59.364;18.016;2024-01-27T07:09:19;1.20;;;1.10;;
28028;SDS011;15345;59.364;18.016;2024-01-27T07:10:39;3.50;;;1.30;;
28028;SDS011;15345;59.364;18.016;2024-01-27T07:11:58;1.27;;;1.00;;
28028;SDS011;15345;59.364;18.016;2024-01-27T07:13:17;1.92;;;1.02;;
28028;SDS011;15345;59.364;18.016;2024-01-27T07:14:36;3.03;;;1.08;;
28028;SDS011;15345;59.364;18.016;2024-01-27T07:15:56;0.82;;;0.82;;
28028;SDS011;15345;59.364;18.016;2024-01-27T07:17:17;1.13;;;1.10;;
28028;SDS011;15345;59.364;18.016;2024-01-27T07:18:36;2.60;;;1.30;;
28028;SDS011;15345;59.364;18.016;2024-01-27T07:19:56;4.90;;;1.05;;
28028;SDS011;15345;59.364;18.016;2024-01-27T07:21:15;7.65;;;1.50;;
28028;SDS011;15345;59.364;18.016;2024-01-27T07:22:38;3.45;;;1.27;;
28028;SDS011;15345;59.364;18.016;2024-01-27T07:23:57;2.88;;;1.30;;
28028;SDS011;15345;59.364;18.016;2024-01-27T07:25:17;3.28;;;1.23;;
28028;SDS011;15345;59.364;18.016;2024-01-27T07:26:36;2.60;;;1.20;;
28028;SDS011;15345;59.364;18.016;2024-01-27T07:27:55;2.00;;;1.20;;
28028;SDS011;15345;59.364;18.016;2024-01-27T07:29:14;3.30;;;1.52;;
28028;SDS011;15345;59.364;18.016;2024-01-27T07:30:34;5.53;;;1.50;;
28028;SDS011;15345;59.364;18.016;2024-01-27T07:31:54;3.05;;;1.33;;
28028;SDS011;15345;59.364;18.016;2024-01-27T07:33:13;2.70;;;1.50;;
28028;SDS011;15345;59.364;18.016;2024-01-27T07:34:33;4.00;;;1.15;;
28028;SDS011;15345;59.364;18.016;2024-01-27T07:35:52;1.50;;;1.20;;
28028;SDS011;15345;59.364;18.016;2024-01-27T07:37:11;1.50;;;1.40;;
28028;SDS011;15345;59.364;18.016;2024-01-27T07:38:31;1.05;;;1.05;;
28028;SDS011;15345;59.364;18.016;2024-01-27T07:39:51;2.35;;;1.13;;
28028;SDS011;15345;59.364;18.016;2024-01-27T07:41:10;3.85;;;1.35;;
28028;SDS011;15345;59.364;18.016;2024-01-27T07:42:29;5.10;;;1.30;;
28028;SDS011;15345;59.364;18.016;2024-01-27T07:43:48;4.60;;;1.50;;
28028;SDS011;15345;59.364;18.016;2024-01-27T07:45:06;5.25;;;1.30;;
28028;SDS011;15345;59.364;18.016;2024-01-27T07:46:27;3.00;;;1.08;;
28028;SDS011;15345;59.364;18.016;2024-01-27T07:47:46;4.43;;;1.52;;
28028;SDS011;15345;59.364;18.016;2024-01-27T07:49:05;3.67;;;1.40;;
28028;SDS011;15345;59.364;18.016;2024-01-27T07:50:25;1.48;;;1.38;;